TimeEST,TemperatureF,Dew PointF,Humidity,Sea Level PressureIn,VisibilityMPH,Wind Direction,Wind SpeedMPH,Gust SpeedMPH,PrecipitationIn,Events,Conditions,WindDirDegrees,DateUTC
12:15 AM,24.3,18.0,77,29.87,10.0,NE,4.6,-,N/A,,Overcast,50,2012-12-11 05:15:00
12:35 AM,24.1,18.3,79,29.87,10.0,ENE,3.5,-,N/A,,Overcast,70,2012-12-11 05:35:00
12:54 AM,23.9,18.1,79,29.89,10.0,East,5.8,-,N/A,,Overcast,90,2012-12-11 05:54:00
1:15 AM,23.9,18.0,78,29.88,10.0,ENE,4.6,-,N/A,,Overcast,70,2012-12-11 06:15:00
1:35 AM,23.9,17.6,77,29.89,10.0,ENE,5.8,-,N/A,,Overcast,60,2012-12-11 06:35:00
1:54 AM,23.9,17.6,77,29.89,10.0,Calm,Calm,-,N/A,,Overcast,0,2012-12-11 06:54:00
2:15 AM,23.7,17.6,77,29.90,10.0,Calm,Calm,-,N/A,,Overcast,0,2012-12-11 07:15:00
2:35 AM,23.4,17.1,77,29.90,10.0,ENE,3.5,-,N/A,,Overcast,60,2012-12-11 07:35:00
2:54 AM,23.4,17.1,77,29.91,10.0,Calm,Calm,-,N/A,,Overcast,0,2012-12-11 07:54:00
3:15 AM,23.4,16.9,76,29.91,10.0,Calm,Calm,-,N/A,,Overcast,0,2012-12-11 08:15:00
3:35 AM,23.4,17.4,78,29.91,10.0,North,3.5,-,N/A,,Overcast,10,2012-12-11 08:35:00
3:55 AM,23.0,17.2,79,29.91,10.0,Calm,Calm,-,N/A,,Overcast,0,2012-12-11 08:55:00
4:15 AM,23.0,17.2,79,29.91,10.0,Calm,Calm,-,N/A,,Overcast,0,2012-12-11 09:15:00
4:35 AM,22.6,17.2,80,29.91,10.0,ENE,3.5,-,N/A,,Overcast,70,2012-12-11 09:35:00
4:54 AM,22.3,17.1,80,29.92,10.0,Calm,Calm,-,N/A,,Scattered Clouds,0,2012-12-11 09:54:00
5:15 AM,22.3,17.2,81,29.92,10.0,Calm,Calm,-,N/A,,Scattered Clouds,0,2012-12-11 10:15:00
5:35 AM,19.4,15.4,85,29.93,10.0,Calm,Calm,-,N/A,,Scattered Clouds,0,2012-12-11 10:35:00
5:54 AM,19.6,16.0,86,29.93,10.0,Calm,Calm,-,N/A,,Scattered Clouds,0,2012-12-11 10:54:00
6:15 AM,19.4,16.3,88,29.94,10.0,Calm,Calm,-,N/A,,Mostly Cloudy,0,2012-12-11 11:15:00
6:35 AM,20.5,17.1,87,29.94,10.0,Calm,Calm,-,N/A,,Overcast,0,2012-12-11 11:35:00
6:54 AM,19.0,16.2,89,29.94,10.0,Calm,Calm,-,N/A,,Mostly Cloudy,0,2012-12-11 11:54:00
7:15 AM,18.7,15.6,88,29.96,10.0,Calm,Calm,-,N/A,,Clear,0,2012-12-11 12:15:00
7:35 AM,17.8,15.1,89,29.96,10.0,Calm,Calm,-,N/A,,Clear,0,2012-12-11 12:35:00
7:53 AM,17.1,14.9,91,29.96,10.0,Calm,Calm,-,N/A,,Clear,0,2012-12-11 12:53:00
8:15 AM,16.7,14.9,93,29.96,0.8,Calm,Calm,-,N/A,,Mist,0,2012-12-11 13:15:00
8:34 AM,16.3,14.4,92,29.96,5.0,Calm,Calm,-,N/A,,Clear,0,2012-12-11 13:34:00
8:55 AM,16.5,14.5,92,29.96,10.0,Calm,Calm,-,N/A,,Clear,0,2012-12-11 13:55:00
9:15 AM,18.0,16.2,93,29.97,10.0,Calm,Calm,-,N/A,,Clear,0,2012-12-11 14:15:00
9:34 AM,18.3,16.5,93,29.97,10.0,Calm,Calm,-,N/A,,Scattered Clouds,0,2012-12-11 14:34:00
9:55 AM,22.1,19.4,89,29.97,10.0,SSE,4.6,-,N/A,,Mostly Cloudy,150,2012-12-11 14:55:00
10:15 AM,23.7,18.3,80,29.98,10.0,SSE,6.9,-,N/A,,Overcast,150,2012-12-11 15:15:00
10:34 AM,24.3,18.5,79,29.97,10.0,SE,5.8,-,N/A,Snow,Light Snow,140,2012-12-11 15:34:00
10:55 AM,24.6,18.9,79,29.98,10.0,SSE,5.8,-,N/A,,Overcast,160,2012-12-11 15:55:00
11:15 AM,25.2,19.6,79,29.98,5.0,SE,5.8,-,N/A,Snow,Light Snow,140,2012-12-11 16:15:00
11:34 AM,25.5,19.6,78,29.97,7.0,SE,6.9,-,N/A,Snow,Light Snow,140,2012-12-11 16:34:00
11:55 AM,27.7,20.7,75,29.96,10.0,SE,9.2,-,N/A,,Mostly Cloudy,140,2012-12-11 16:55:00
12:15 PM,28.4,20.8,73,29.96,10.0,SSE,6.9,-,N/A,,Mostly Cloudy,160,2012-12-11 17:15:00
12:34 PM,28.9,21.9,75,29.96,10.0,SSE,6.9,-,N/A,,Overcast,150,2012-12-11 17:34:00
12:55 PM,29.8,22.5,74,29.95,10.0,SE,8.1,-,N/A,,Overcast,140,2012-12-11 17:55:00
1:15 PM,29.7,23.5,78,29.95,4.0,South,9.2,-,N/A,Snow,Light Snow,170,2012-12-11 18:15:00
1:34 PM,29.3,24.8,83,29.96,2.0,South,8.1,-,N/A,Snow,Light Snow,170,2012-12-11 18:34:00
1:55 PM,30.2,25.7,83,29.96,7.0,South,8.1,-,N/A,Snow,Light Snow,170,2012-12-11 18:55:00
2:15 PM,30.2,25.9,84,29.95,10.0,Calm,Calm,-,N/A,,Mostly Cloudy,0,2012-12-11 19:15:00
2:34 PM,31.1,26.4,83,29.95,10.0,SSE,3.5,-,N/A,,Overcast,150,2012-12-11 19:34:00
2:55 PM,32.0,26.1,79,29.95,10.0,South,8.1,-,N/A,,Overcast,180,2012-12-11 19:55:00
3:15 PM,32.0,27.1,82,29.95,10.0,South,4.6,-,N/A,,Overcast,170,2012-12-11 20:15:00
3:35 PM,32.4,24.1,72,29.95,10.0,SSW,10.4,-,N/A,,Overcast,210,2012-12-11 20:35:00
3:55 PM,32.5,21.9,65,29.96,10.0,SW,11.5,16.1,N/A,,Overcast,220,2012-12-11 20:55:00
4:15 PM,32.4,22.1,66,29.96,10.0,SSW,11.5,17.3,N/A,,Overcast,210,2012-12-11 21:15:00
4:35 PM,32.0,21.9,66,29.96,10.0,SSW,10.4,-,N/A,,Mostly Cloudy,200,2012-12-11 21:35:00
4:55 PM,32.0,22.1,67,29.97,10.0,SSW,8.1,-,N/A,,Overcast,200,2012-12-11 21:55:00
5:15 PM,32.0,22.5,68,29.97,10.0,SSW,8.1,-,N/A,,Overcast,200,2012-12-11 22:15:00
5:35 PM,31.8,22.1,67,29.97,10.0,South,6.9,-,N/A,,Overcast,190,2012-12-11 22:35:00
5:55 PM,31.1,21.7,68,29.97,10.0,South,6.9,-,N/A,,Mostly Cloudy,170,2012-12-11 22:55:00
6:15 PM,31.1,21.2,67,29.97,10.0,South,6.9,-,N/A,,Overcast,180,2012-12-11 23:15:00
6:35 PM,31.1,20.7,65,29.97,10.0,South,8.1,-,N/A,,Overcast,190,2012-12-11 23:35:00
6:55 PM,31.5,20.3,63,29.98,10.0,South,11.5,-,N/A,,Overcast,190,2012-12-11 23:55:00
7:15 PM,31.6,20.7,64,29.98,10.0,South,13.8,18.4,N/A,,Overcast,190,2012-12-12 00:15:00
7:35 PM,31.5,20.3,63,29.98,10.0,SSW,12.7,19.6,N/A,,Overcast,200,2012-12-12 00:35:00
7:55 PM,31.1,21.2,67,29.99,10.0,SSW,10.4,17.3,N/A,Snow,Light Snow,200,2012-12-12 00:55:00
8:14 PM,30.9,22.1,70,30.00,4.0,SW,13.8,23.0,N/A,Snow,Light Snow,220,2012-12-12 01:14:00
8:35 PM,30.4,23.0,74,30.00,7.0,SSW,12.7,20.7,N/A,Snow,Light Snow,200,2012-12-12 01:35:00
8:55 PM,30.0,23.0,75,30.00,10.0,SSW,10.4,-,N/A,Snow,Light Snow,200,2012-12-12 01:55:00
9:14 PM,29.8,24.6,81,30.01,7.0,SSW,11.5,-,N/A,Snow,Light Snow,200,2012-12-12 02:14:00
9:35 PM,29.7,24.8,82,30.01,10.0,South,9.2,-,N/A,Snow,Light Snow,190,2012-12-12 02:35:00
9:55 PM,29.8,24.8,81,30.01,10.0,SSW,9.2,-,N/A,,Overcast,200,2012-12-12 02:55:00
10:14 PM,30.2,24.8,80,30.01,10.0,South,6.9,-,N/A,,Overcast,190,2012-12-12 03:14:00
10:35 PM,30.2,24.8,80,30.02,10.0,South,8.1,-,N/A,,Overcast,190,2012-12-12 03:35:00
10:53 PM,30.6,24.6,79,30.02,10.0,SSW,6.9,-,N/A,,Overcast,200,2012-12-12 03:53:00
11:15 PM,30.9,24.6,77,30.03,10.0,South,6.9,-,N/A,,Overcast,190,2012-12-12 04:15:00
11:35 PM,30.9,24.6,77,30.03,10.0,SSW,5.8,-,N/A,,Overcast,200,2012-12-12 04:35:00
11:55 PM,31.1,24.6,77,30.04,10.0,SSW,8.1,-,N/A,,Overcast,200,2012-12-12 04:55:00